Lela Franco — WDI2504 — position and weather

sailwx.info

Track history (hours):
 
Tides and Currents Weather Stations Pressure Air Temp Water Temp Dewpoint Dewpoint Depression Visibility Wind Speed Wind Dir Waves Ship Positions

Lela Franco

Owner: Harley Marine Services, Inc, Seattle, WA. More information available from US FCC via Universal Licensing System and Coast Guard Vessel Documentation Center.

Last reported at 2017-Sep-25 14:30 UTC. Time now 2017-Sep-25 14:54 UTC.
Position N 33°45' W 118°13'.

Length 18 m; draft 3 m.

Type: Towing. MMSI: 366926730.

Date/timePositionNaut miles runAvg speedWind from/ knotsBaromVisibWave heightAir tempDewpointWater temp
2017-Sep-25 14:30N 33°45' W 118°13'2211305.8
2017-Sep-25 14:30N 33°27' W 118°29'4 7.7
2017-Sep-25 14:00N 33°30' W 118°26'1813042.2
2017-Sep-25 14:00N 33°45' W 118°13'0 0.0
2017-Sep-25 13:30N 33°45' W 118°13'1410313.7
2017-Sep-25 13:30N 33°33' W 118°23'1428.8
2017-Sep-25 13:00N 33°45' W 118°13'115469.0
2017-Sep-25 13:00N 33°36' W 118°20'1121.4
2017-Sep-25 12:30N 33°45' W 118°13'73635.1
2017-Sep-25 12:30N 33°39' W 118°18'4 7.4
2017-Sep-25 12:01N 33°42' W 118°15'43470.6
2017-Sep-25 12:00N 33°46' W 118°13'3 6.8
2017-Sep-25 11:30N 33°44' W 118°16'32481.5
2017-Sep-25 11:30N 33°45' W 118°13'1 2.6
2017-Sep-25 11:00N 33°45' W 118°12'41757.7
2017-Sep-25 11:00N 33°45' W 118°16'4 7.1
2017-Sep-25 10:30N 33°44' W 118°12'1 1.2
2017-Sep-25 10:00N 33°44' W 118°12'3 6.4
2017-Sep-25 09:30N 33°44' W 118°16'0 0.5
2017-Sep-25 09:00N 33°44' W 118°16'0 0.0
2017-Sep-25 08:30N 33°44' W 118°16'0 0.0
2017-Sep-25 08:00N 33°44' W 118°16'0 0.0
2017-Sep-25 07:30N 33°44' W 118°16'0 0.0
2017-Sep-25 07:00N 33°44' W 118°16'0 0.0
2017-Sep-25 06:30N 33°44' W 118°16'0 0.0
2017-Sep-25 06:00N 33°44' W 118°16'0 0.0
2017-Sep-25 05:30N 33°44' W 118°16'0 0.0
2017-Sep-25 04:59N 33°44' W 118°16'0 0.0
2017-Sep-25 04:30N 33°44' W 118°16'0 0.0
2017-Sep-25 04:00N 33°44' W 118°16'0 0.0
2017-Sep-25 03:29N 33°44' W 118°16'0 0.0
2017-Sep-25 03:00N 33°44' W 118°16'1 1.3
2017-Sep-25 02:30N 33°44' W 118°16'2 3.1
2017-Sep-25 02:00N 33°45' W 118°17'1 1.5
2017-Sep-25 01:30N 33°45' W 118°17'1 2.1
2017-Sep-25 01:00N 33°44' W 118°16'0 0.0
2017-Sep-25 00:30N 33°44' W 118°16'0 0.0
2017-Sep-25 00:00N 33°44' W 118°16'3 5.1
2017-Sep-24 23:29N 33°43' W 118°13'1 2.3
2017-Sep-24 23:00N 33°44' W 118°12'1 1.3
2017-Sep-24 22:30N 33°44' W 118°11'1 2.6
2017-Sep-24 22:00N 33°43' W 118°11'1 1.4
2017-Sep-24 21:30N 33°44' W 118°11'1 2.1
2017-Sep-24 21:00N 33°43' W 118°13'2 5.0
2017-Sep-24 20:30N 33°44' W 118°16'0 0.0
2017-Sep-24 20:00N 33°44' W 118°16'0 0.0
2017-Sep-24 19:30N 33°44' W 118°16'0 0.0
2017-Sep-24 18:59N 33°44' W 118°16'0 0.2
2017-Sep-24 18:30N 33°44' W 118°16'3 5.9
2017-Sep-24 18:00N 33°44' W 118°12'2 3.3
2017-Sep-24 17:30N 33°45' W 118°11'3 4.6
2017-Sep-24 16:55N 33°43' W 118°13'2 4.7
2017-Sep-24 16:30N 33°44' W 118°16'0 0.0
2017-Sep-24 15:53N 33°44' W 118°16'0 0.0
2017-Sep-24 15:30N 33°44' W 118°16'0 0.0
2017-Sep-24 15:00N 33°44' W 118°16'0 0.0
2017-Sep-24 14:30N 33°44' W 118°16'0 0.0
2017-Sep-24 14:00N 33°44' W 118°16'0 0.0
2017-Sep-24 13:30N 33°44' W 118°16'0 0.0
2017-Sep-24 13:00N 33°44' W 118°16'1 1.9
2017-Sep-24 12:31N 33°44' W 118°17'1 2.7
2017-Sep-24 12:00N 33°46' W 118°17'1 0.9
2017-Sep-24 11:12N 33°45' W 118°16'0 0.0
2017-Sep-24 10:15N 33°45' W 118°16'0 0.0
2017-Sep-24 10:00N 33°45' W 118°16'0 0.0
2017-Sep-24 09:30N 33°45' W 118°16'0 0.0
2017-Sep-24 08:58N 33°45' W 118°16'0 0.0
2017-Sep-24 08:30N 33°45' W 118°16'1 2.7
2017-Sep-24 07:58N 33°44' W 118°16'3 4.7
2017-Sep-24 07:22N 33°45' W 118°13'1 0.8
2017-Sep-24 06:14N 33°46' W 118°13'0 0.0
2017-Sep-24 05:52N 33°46' W 118°13'0 0.0
2017-Sep-24 05:29N 33°46' W 118°13'0 0.0
2017-Sep-24 04:58N 33°46' W 118°13'3 6.9
2017-Sep-24 04:30N 33°43' W 118°14'2 3.2
2017-Sep-24 04:00N 33°44' W 118°16'0 0.0
2017-Sep-24 03:30N 33°44' W 118°16'0 0.0
2017-Sep-24 03:00N 33°44' W 118°16'0 0.0
2017-Sep-24 02:31N 33°44' W 118°16'2 3.8
2017-Sep-24 02:01N 33°44' W 118°13'1 2.8
2017-Sep-24 01:30N 33°45' W 118°14'1 2.6
2017-Sep-24 01:00N 33°46' W 118°13'2 3.7
2017-Sep-24 00:30N 33°45' W 118°13'1 0.9
2017-Sep-23 23:56N 33°45' W 118°12'0 0.0
2017-Sep-23 23:26N 33°45' W 118°12'0 0.0
2017-Sep-23 22:53N 33°45' W 118°12'0 0.0
2017-Sep-23 22:24N 33°45' W 118°12'0 1.1
2017-Sep-23 22:00N 33°45' W 118°12'1 2.4
2017-Sep-23 21:30N 33°45' W 118°11'0 0.0
2017-Sep-23 20:23N 33°45' W 118°11'0 0.0
2017-Sep-23 20:00N 33°45' W 118°11'4 0.1
2017-Sep-22 02:00N 33°44' W 118°16'0 0.6
2017-Sep-22 01:29N 33°44' W 118°16'1 1.4
2017-Sep-22 01:00N 33°44' W 118°15'0 0.1
2017-Sep-22 00:30N 33°44' W 118°15'0 0.0
2017-Sep-21 23:59N 33°44' W 118°15'1 3.9
2017-Sep-21 23:36N 33°45' W 118°16'115.6
2017-Sep-21 23:30N 33°44' W 118°15'147.3
2017-Sep-21 23:29N 33°45' W 118°16'2 3.6
2017-Sep-21 23:00N 33°43' W 118°16'28715.7
2017-Sep-21 23:00N 33°46' W 118°15'4 8.3
2017-Sep-21 22:30N 33°41' W 118°15'4660.8
2017-Sep-21 22:30N 33°45' W 118°16'2 4.9
2017-Sep-21 22:00N 33°43' W 118°16'1 1.7
2017-Sep-21 21:30N 33°43' W 118°15'2 3.1
2017-Sep-21 21:00N 33°44' W 118°16'1632.7
2017-Sep-21 20:31N 33°33' W 118°30'17898.2
2017-Sep-21 20:30N 33°46' W 118°16'18711.9
2017-Sep-21 20:29N 33°33' W 118°30'1837.4
2017-Sep-21 20:00N 33°46' W 118°15'23224.2
2017-Sep-21 19:53N 33°30' W 118°35'2358.2
2017-Sep-21 19:30N 33°46' W 118°15'251787.8
2017-Sep-21 19:29N 33°28' W 118°37'3 7.0
2017-Sep-21 19:00N 33°25' W 118°35'241756.1
2017-Sep-21 19:00N 33°44' W 118°16'0 0.0
2017-Sep-21 18:30N 33°44' W 118°16'1 1.7
2017-Sep-21 18:01N 33°43' W 118°16'2 4.3
2017-Sep-21 17:30N 33°44' W 118°13'2 4.3
2017-Sep-21 17:00N 33°46' W 118°13'1 1.8
2017-Sep-21 16:30N 33°45' W 118°13'2 4.6
2017-Sep-21 15:59N 33°44' W 118°16'0 0.0
2017-Sep-21 15:21N 33°44' W 118°16'0 0.0
2017-Sep-21 14:56N 33°44' W 118°16'0 0.0
2017-Sep-21 14:29N 33°44' W 118°16'3 5.1
2017-Sep-21 13:58N 33°44' W 118°13'1 3.1
2017-Sep-21 13:29N 33°46' W 118°13'1027.1
2017-Sep-21 13:08N 33°38' W 118°20'974.0
2017-Sep-21 13:00N 33°46' W 118°13'864.9
2017-Sep-21 12:53N 33°40' W 118°18'718.5
2017-Sep-21 12:30N 33°44' W 118°11'4183.2
2017-Sep-21 12:29N 33°42' W 118°16'2 3.6
2017-Sep-21 12:00N 33°43' W 118°16'0 6.9
2017-Sep-21 11:58N 33°43' W 118°16'2 3.3
2017-Sep-21 11:24N 33°45' W 118°16'0 2.5
2017-Sep-21 11:13N 33°45' W 118°16'0 0.0
2017-Sep-21 10:41N 33°45' W 118°16'0 0.1
2017-Sep-21 10:18N 33°45' W 118°16'1 3.0
2017-Sep-21 09:50N 33°44' W 118°16'2 5.8
2017-Sep-21 09:30N 33°43' W 118°15'1 0.8
2017-Sep-21 08:49N 33°42' W 118°14'2 4.3
2017-Sep-21 08:21N 33°44' W 118°16'0 0.0
2017-Sep-21 07:56N 33°44' W 118°16'0 0.0
2017-Sep-21 07:30N 33°44' W 118°16'0 0.0
2017-Sep-21 07:00N 33°44' W 118°16'0 0.0
2017-Sep-21 06:28N 33°44' W 118°16'0 0.0
2017-Sep-21 06:00N 33°44' W 118°16'0 0.0
2017-Sep-21 05:30N 33°44' W 118°16'0 0.4
2017-Sep-21 05:00N 33°44' W 118°15'0 0.3
2017-Sep-21 04:29N 33°44' W 118°16'0 0.0
2017-Sep-21 04:00N 33°44' W 118°16'0 0.0
2017-Sep-21 03:30N 33°44' W 118°16'0 0.0
2017-Sep-21 03:00N 33°44' W 118°16'0 0.0
2017-Sep-21 02:30N 33°44' W 118°16'0 0.0
2017-Sep-21 02:00N 33°44' W 118°16'1 1.8
2017-Sep-21 01:30N 33°43' W 118°15'3 6.9
2017-Sep-21 01:00N 33°45' W 118°12'0 0.2
2017-Sep-21 00:30N 33°45' W 118°12'1 2.3
2017-Sep-21 00:00N 33°43' W 118°11'2 3.9
2017-Sep-20 23:30N 33°45' W 118°13'0 0.0
2017-Sep-20 23:00N 33°45' W 118°13'0 0.0
2017-Sep-20 22:30N 33°45' W 118°13'1 1.8
2017-Sep-20 22:00N 33°45' W 118°14'1 1.6
2017-Sep-20 21:30N 33°45' W 118°13'2 3.2
2017-Sep-20 21:00N 33°44' W 118°12'0 0.2
2017-Sep-20 20:30N 33°44' W 118°12'2 3.1
2017-Sep-20 20:00N 33°45' W 118°12'317.6
2017-Sep-20 19:49N 33°45' W 118°16'3 9.4
2017-Sep-20 19:30N 33°44' W 118°13'3352.4
2017-Sep-20 19:30N 33°45' W 118°16'1 1.8
2017-Sep-20 19:00N 33°44' W 118°17'11220.5
2017-Sep-20 19:00N 33°43' W 118°16'3 6.3
2017-Sep-20 18:30N 33°46' W 118°15'65191.4
2017-Sep-20 18:30N 33°40' W 118°15'4 8.9
2017-Sep-20 18:00N 33°44' W 118°17'8125.3
2017-Sep-20 17:56N 33°36' W 118°15'817.6
2017-Sep-20 17:30N 33°44' W 118°16'0 0.0
2017-Sep-20 17:00N 33°44' W 118°16'0 0.0
2017-Sep-20 16:30N 33°44' W 118°16'2089.3
2017-Sep-20 16:17N 33°24' W 118°18'2073.5
2017-Sep-20 16:00N 33°44' W 118°15'221244.2
2017-Sep-20 15:59N 33°22' W 118°18'2346.9
2017-Sep-20 15:30N 33°45' W 118°17'25338.5
2017-Sep-20 15:26N 33°20' W 118°19'0 0.0
2017-Sep-20 14:59N 33°20' W 118°19'232253.8
2017-Sep-20 14:59N 33°43' W 118°16'1 0.6
2017-Sep-20 13:55N 33°44' W 118°16'24283.3
2017-Sep-20 13:50N 33°20' W 118°19'2368.6
2017-Sep-20 13:30N 33°43' W 118°14'2 4.8
2017-Sep-20 13:00N 33°45' W 118°13'0 0.8
2017-Sep-20 12:26N 33°46' W 118°13'1 1.3
2017-Sep-20 11:52N 33°45' W 118°13'1199.2
2017-Sep-20 11:45N 33°34' W 118°16'1139.3
2017-Sep-20 11:28N 33°45' W 118°13'9167.9
2017-Sep-20 11:25N 33°37' W 118°16'920.6
2017-Sep-20 11:00N 33°45' W 118°13'5692.3
2017-Sep-20 11:00N 33°40' W 118°15'3 6.2
2017-Sep-20 10:30N 33°43' W 118°16'3268.1
2017-Sep-20 10:29N 33°46' W 118°13'0 0.0
2017-Sep-20 10:00N 33°46' W 118°13'3780.7
2017-Sep-20 10:00N 33°45' W 118°16'3 5.4
2017-Sep-20 09:28N 33°45' W 118°13'0 0.0
2017-Sep-20 08:59N 33°45' W 118°13'1 2.8
2017-Sep-20 08:29N 33°44' W 118°13'2 3.2
2017-Sep-20 07:54N 33°44' W 118°16'0 0.0
2017-Sep-20 07:30N 33°44' W 118°16'0 0.0
2017-Sep-20 06:58N 33°44' W 118°16'0 0.0
2017-Sep-20 06:28N 33°44' W 118°16'0 0.0
2017-Sep-20 06:00N 33°44' W 118°16'0 0.0
2017-Sep-20 05:23N 33°44' W 118°16'0 0.0
2017-Sep-20 04:59N 33°44' W 118°16'0 0.0
2017-Sep-20 04:23N 33°44' W 118°16'0 0.0
2017-Sep-20 03:54N 33°44' W 118°16'0 0.0
2017-Sep-20 03:30N 33°44' W 118°16'0 0.0
2017-Sep-20 02:59N 33°44' W 118°16'0 0.5
2017-Sep-20 02:30N 33°44' W 118°16'3 3.8
2017-Sep-20 01:45N 33°45' W 118°12'0 1.7
2017-Sep-20 01:29N 33°45' W 118°13'0 0.2
2017-Sep-20 00:56N 33°45' W 118°13'0 0.1
2017-Sep-20 00:30N 33°45' W 118°13'0 0.1
2017-Sep-20 00:00N 33°45' W 118°13'0 0.8
2017-Sep-19 23:31N 33°45' W 118°13'0 0.5
2017-Sep-19 23:00N 33°45' W 118°13'311.4
2017-Sep-19 22:44N 33°45' W 118°16'312.8
2017-Sep-19 22:30N 33°45' W 118°13'31177.5
2017-Sep-19 22:30N 33°45' W 118°16'2 3.9
2017-Sep-19 22:00N 33°43' W 118°16'3316.4
2017-Sep-19 22:00N 33°45' W 118°13'510.1
2017-Sep-19 21:30N 33°41' W 118°15'51434.3
2017-Sep-19 21:30N 33°45' W 118°13'0 0.9
2017-Sep-19 21:00N 33°45' W 118°13'9232.0
2017-Sep-19 20:57N 33°37' W 118°19'715.5
2017-Sep-19 20:30N 33°43' W 118°14'1 2.8
2017-Sep-19 20:00N 33°44' W 118°15'1 2.0
2017-Sep-19 19:30N 33°43' W 118°16'1 1.3
2017-Sep-19 18:55N 33°43' W 118°15'1 2.8
2017-Sep-19 18:27N 33°44' W 118°16'0 0.0
2017-Sep-19 18:00N 33°44' W 118°16'0 0.0
2017-Sep-19 17:29N 33°44' W 118°16'0 0.0
2017-Sep-19 17:00N 33°44' W 118°16'1063.9
2017-Sep-19 16:51N 33°35' W 118°21'1027.7
2017-Sep-19 16:29N 33°44' W 118°16'7205.9
2017-Sep-19 16:27N 33°37' W 118°19'5 7.0
2017-Sep-19 15:47N 33°41' W 118°16'2 5.4
2017-Sep-19 15:24N 33°43' W 118°16'1 4.0
2017-Sep-19 15:10N 33°44' W 118°16'0 0.0
2017-Sep-19 14:56N 33°44' W 118°16'3 1.2
2017-Sep-19 12:40N 33°45' W 118°13'0 0.5
2017-Sep-19 12:08N 33°46' W 118°13'0 1.0
2017-Sep-19 11:57N 33°46' W 118°13'1 1.1
2017-Sep-19 11:18N 33°45' W 118°13'3 4.6
2017-Sep-19 10:37N 33°43' W 118°16'1 8.8
2017-Sep-19 10:27N 33°44' W 118°17'1 3.2
2017-Sep-19 09:59N 33°46' W 118°16'0 0.3
2017-Sep-19 09:28N 33°46' W 118°15'1 1.7
2017-Sep-19 08:41N 33°46' W 118°14'0 0.0
2017-Sep-19 08:27N 33°46' W 118°14'3 2.5
2017-Sep-19 07:05N 33°43' W 118°15'1 7.5
2017-Sep-19 07:00N 33°43' W 118°16'0 0.7
2017-Sep-19 06:23N 33°44' W 118°16'0 0.0
2017-Sep-19 05:58N 33°44' W 118°16'0 0.0
2017-Sep-19 05:29N 33°44' W 118°16'0 0.0
2017-Sep-19 05:00N 33°44' W 118°16'0 0.0
2017-Sep-19 04:24N 33°44' W 118°16'0 0.0
2017-Sep-19 03:58N 33°44' W 118°16'0 0.0
2017-Sep-19 03:25N 33°44' W 118°16'0 0.0
2017-Sep-19 03:00N 33°44' W 118°16'1 2.2
2017-Sep-19 02:30N 33°45' W 118°16'0 0.6
2017-Sep-19 01:57N 33°45' W 118°16'2 3.8
2017-Sep-19 01:30N 33°43' W 118°16'1 1.2
2017-Sep-19 00:57N 33°44' W 118°16'0 0.0
2017-Sep-19 00:30N 33°44' W 118°16'0 0.0
2017-Sep-19 00:00N 33°44' W 118°16'0 0.0
2017-Sep-18 23:30N 33°44' W 118°16'0 0.0
2017-Sep-18 23:00N 33°44' W 118°16'0 0.4
2017-Sep-18 22:29N 33°44' W 118°16'2 3.2
2017-Sep-18 21:57N 33°45' W 118°16'0 0.9
2017-Sep-18 21:30N 33°46' W 118°16'0 0.1
2017-Sep-18 20:56N 33°46' W 118°16'0 0.9
2017-Sep-18 20:30N 33°46' W 118°15'2 3.5
2017-Sep-18 20:00N 33°45' W 118°13'0 0.1
2017-Sep-18 19:30N 33°45' W 118°13'1 1.6
2017-Sep-18 18:58N 33°44' W 118°13'2 4.4
2017-Sep-18 18:30N 33°44' W 118°10'0 0.6
2017-Sep-18 18:00N 33°44' W 118°10'3 6.1
2017-Sep-18 17:30N 33°43' W 118°14'2 2.9
2017-Sep-18 16:54N 33°44' W 118°16'0 0.0
2017-Sep-18 16:30N 33°44' W 118°16'8 4.1
2017-Sep-18 14:38N 33°43' W 118°06'0 0.4
2017-Sep-18 14:30N 33°43' W 118°06'1 2.0
2017-Sep-18 13:48N 33°44' W 118°08'411.0
2017-Sep-18 13:26N 33°45' W 118°13'0 0.5
2017-Sep-18 12:25N 33°45' W 118°13'0 0.5
2017-Sep-18 11:54N 33°45' W 118°13'2 5.6
2017-Sep-18 11:30N 33°44' W 118°11'3 4.7
2017-Sep-18 10:51N 33°43' W 118°15'1 2.7
2017-Sep-18 10:20N 33°44' W 118°16'0 0.0
2017-Sep-18 09:48N 33°44' W 118°16'0 0.0
2017-Sep-18 09:29N 33°44' W 118°16'0 0.0
2017-Sep-18 08:58N 33°44' W 118°16'0 0.0
2017-Sep-18 08:29N 33°44' W 118°16'0 0.0
2017-Sep-18 07:57N 33°44' W 118°16'0 0.0
2017-Sep-18 07:24N 33°44' W 118°16'0 0.0
2017-Sep-18 07:00N 33°44' W 118°16'0 0.0
2017-Sep-18 06:25N 33°44' W 118°16'1 1.4
2017-Sep-18 05:59N 33°44' W 118°16'2 3.9
2017-Sep-18 05:26N 33°46' W 118°16'2 5.5
2017-Sep-18 05:00N 33°44' W 118°16'1 1.2
2017-Sep-18 04:30N 33°44' W 118°16'0 0.1
2017-Sep-18 03:57N 33°44' W 118°16'2 4.4
2017-Sep-18 03:29N 33°44' W 118°13'1 2.1
2017-Sep-18 02:59N 33°45' W 118°13'1 3.0
2017-Sep-18 02:30N 33°46' W 118°13'0 0.0
2017-Sep-18 01:55N 33°46' W 118°13'0 0.0
2017-Sep-18 01:29N 33°46' W 118°13'0 0.0
2017-Sep-18 00:58N 33°46' W 118°13'0 0.1
2017-Sep-18 00:27N 33°46' W 118°13'3 7.1
2017-Sep-18 00:00N 33°43' W 118°14'1 2.8
2017-Sep-17 23:30N 33°44' W 118°16'0 0.9
2017-Sep-17 22:58N 33°44' W 118°15'1 1.3
2017-Sep-17 22:30N 33°44' W 118°16'0 0.0
2017-Sep-17 22:00N 33°44' W 118°16'0 0.0
2017-Sep-17 21:30N 33°44' W 118°16'2 3.4
2017-Sep-17 21:00N 33°43' W 118°14'3 6.1
2017-Sep-17 20:30N 33°46' W 118°13'2 3.0
2017-Sep-17 19:58N 33°45' W 118°13'1 1.3
2017-Sep-17 19:30N 33°44' W 118°13'2 4.4
2017-Sep-17 18:59N 33°44' W 118°16'0 0.0
2017-Sep-17 18:28N 33°44' W 118°16'0 0.0
2017-Sep-17 18:00N 33°44' W 118°16'0 0.0
2017-Sep-17 17:29N 33°44' W 118°16'0 0.0
2017-Sep-17 16:51N 33°44' W 118°16'0 0.0
2017-Sep-17 16:29N 33°44' W 118°16'0 0.0
2017-Sep-17 15:08N 33°44' W 118°16'0 0.0
2017-Sep-17 14:58N 33°44' W 118°16'1 0.8
2017-Sep-17 14:10N 33°43' W 118°16'2 1.2
2017-Sep-17 12:10N 33°46' W 118°16'0 0.0
2017-Sep-17 11:23N 33°46' W 118°16'3 4.4
2017-Sep-17 10:47N 33°43' W 118°16'3 9.9
2017-Sep-17 10:31N 33°44' W 118°13'1 1.8
2017-Sep-17 09:54N 33°44' W 118°12'1 2.8
2017-Sep-17 09:30N 33°45' W 118°13'0 0.0
2017-Sep-17 08:57N 33°45' W 118°13'0 0.0
2017-Sep-17 08:27N 33°45' W 118°13'0 0.0
2017-Sep-17 08:00N 33°45' W 118°13'0 0.0
2017-Sep-17 07:30N 33°45' W 118°13'0 0.0
2017-Sep-17 06:57N 33°45' W 118°13'0 0.0
2017-Sep-17 06:29N 33°45' W 118°13'0 0.5
2017-Sep-17 05:58N 33°45' W 118°13'1 1.3
2017-Sep-17 05:23N 33°44' W 118°13'1 2.8
2017-Sep-17 04:59N 33°45' W 118°12'3 6.3
2017-Sep-17 04:30N 33°44' W 118°16'0 0.7
2017-Sep-17 03:59N 33°44' W 118°16'0 0.0
2017-Sep-17 03:30N 33°44' W 118°16'0 0.0
2017-Sep-17 02:58N 33°44' W 118°16'0 1.1
2017-Sep-17 02:30N 33°43' W 118°16'2 3.6
2017-Sep-17 02:00N 33°45' W 118°16'0 0.9
2017-Sep-17 01:27N 33°46' W 118°17'1 1.1
2017-Sep-17 00:57N 33°45' W 118°16'2 5.1
2017-Sep-17 00:30N 33°43' W 118°16'3 5.7
2017-Sep-17 00:00N 33°45' W 118°13'0 0.5
2017-Sep-16 23:30N 33°45' W 118°13'0 0.0
2017-Sep-16 22:58N 33°45' W 118°13'0 0.0
2017-Sep-16 22:30N 33°45' W 118°13'0 0.0
2017-Sep-16 22:00N 33°45' W 118°13'0 0.0
2017-Sep-16 21:30N 33°45' W 118°13'0 0.0
2017-Sep-16 21:00N 33°45' W 118°13'0 0.0
2017-Sep-16 20:28N 33°45' W 118°13'0 0.9
2017-Sep-16 20:00N 33°45' W 118°12'1 2.2
2017-Sep-16 19:29N 33°45' W 118°11'0 0.3
2017-Sep-16 19:00N 33°45' W 118°11'3 5.3
2017-Sep-16 18:24N 33°43' W 118°14'2 3.2
2017-Sep-16 17:54N 33°44' W 118°16'0 0.0
2017-Sep-16 17:30N 33°44' W 118°16'0 0.0
2017-Sep-16 16:55N 33°44' W 118°16'0 0.0
2017-Sep-16 16:27N 33°44' W 118°16'0 0.0
2017-Sep-16 15:59N 33°44' W 118°16'1 0.3
2017-Sep-16 14:15N 33°44' W 118°16'2 5.3
2017-Sep-16 13:55N 33°45' W 118°16'0 0.1
2017-Sep-16 13:26N 33°45' W 118°16'2 3.4
2017-Sep-16 12:57N 33°44' W 118°16'2 4.1
2017-Sep-16 12:29N 33°43' W 118°15'1 1.3
2017-Sep-16 11:48N 33°43' W 118°16'0 0.5
2017-Sep-16 11:18N 33°43' W 118°16'0 0.6
2017-Sep-16 10:52N 33°44' W 118°16'0 0.8
2017-Sep-16 10:26N 33°44' W 118°15'0 0.4
2017-Sep-16 09:54N 33°44' W 118°16'0 0.0
2017-Sep-16 09:28N 33°44' W 118°16'0 0.0
2017-Sep-16 08:50N 33°44' W 118°16'1 2.6
2017-Sep-16 08:30N 33°44' W 118°17'1 1.0
2017-Sep-16 07:53N 33°45' W 118°16'2 6.2
2017-Sep-16 07:29N 33°43' W 118°15'3 5.6
2017-Sep-16 06:59N 33°45' W 118°12'3 6.2
2017-Sep-16 06:30N 33°44' W 118°16'0 0.1
2017-Sep-16 06:00N 33°44' W 118°16'2 4.5
2017-Sep-16 05:30N 33°44' W 118°13'2 3.8
2017-Sep-16 05:00N 33°46' W 118°13'0 0.9
2017-Sep-16 04:30N 33°46' W 118°13'1 2.9
2017-Sep-16 04:00N 33°45' W 118°13'3 5.5
2017-Sep-16 03:30N 33°42' W 118°11'1 2.8
2017-Sep-16 03:00N 33°41' W 118°10'1 2.4
2017-Sep-16 02:30N 33°41' W 118°08'0 0.8
2017-Sep-16 01:59N 33°41' W 118°08'3 6.4
2017-Sep-16 01:30N 33°42' W 118°12'3 6.6
2017-Sep-16 01:00N 33°43' W 118°15'1 2.2
2017-Sep-16 00:30N 33°44' W 118°16'0 0.0
2017-Sep-16 00:00N 33°44' W 118°16'0 0.0
2017-Sep-15 23:30N 33°44' W 118°16'3 5.6
2017-Sep-15 23:00N 33°43' W 118°12'4 8.3
2017-Sep-15 22:30N 33°44' W 118°07'2 3.1
2017-Sep-15 21:59N 33°44' W 118°06'1 1.5
2017-Sep-15 21:30N 33°44' W 118°06'3 6.2
2017-Sep-15 21:00N 33°44' W 118°10'4 6.5
2017-Sep-15 20:28N 33°43' W 118°14'2 3.7
2017-Sep-15 20:00N 33°44' W 118°16'0 0.0
2017-Sep-15 19:29N 33°44' W 118°16'0 0.3
2017-Sep-15 18:59N 33°44' W 118°16'0 0.0
2017-Sep-15 18:30N 33°44' W 118°16'0 0.0
2017-Sep-15 17:59N 33°44' W 118°16'0 0.0
2017-Sep-15 17:28N 33°44' W 118°16'0 0.0
2017-Sep-15 16:58N 33°44' W 118°16'0 0.0
2017-Sep-15 16:30N 33°44' W 118°16'1 1.8
2017-Sep-15 16:00N 33°44' W 118°17'2 4.1
2017-Sep-15 15:28N 33°46' W 118°15'3 5.1
2017-Sep-15 14:54N 33°43' W 118°16'  
Track history (hours):
 
Tides and Currents Weather Stations Pressure Air Temp Water Temp Dewpoint Dewpoint Depression Visibility Wind Speed Wind Dir Waves Ship Positions

Lela Franco

Owner: Harley Marine Services, Inc, Seattle, WA. More information available from US FCC via Universal Licensing System and Coast Guard Vessel Documentation Center.

Last reported at 2017-Sep-25 14:30 UTC. Time now 2017-Sep-25 14:54 UTC.
Position N 33°45' W 118°13'.

Length 18 m; draft 3 m.

Type: Towing. MMSI: 366926730.

Date/timePositionNaut miles runAvg speedWind from/ knotsBaromVisibWave heightAir tempDewpointWater temp
2017-Sep-25 14:30N 33°45' W 118°13'2211305.8
2017-Sep-25 14:30N 33°27' W 118°29'4 7.7
2017-Sep-25 14:00N 33°30' W 118°26'1813042.2
2017-Sep-25 14:00N 33°45' W 118°13'0 0.0
2017-Sep-25 13:30N 33°45' W 118°13'1410313.7
2017-Sep-25 13:30N 33°33' W 118°23'1428.8
2017-Sep-25 13:00N 33°45' W 118°13'115469.0
2017-Sep-25 13:00N 33°36' W 118°20'1121.4
2017-Sep-25 12:30N 33°45' W 118°13'73635.1
2017-Sep-25 12:30N 33°39' W 118°18'4 7.4
2017-Sep-25 12:01N 33°42' W 118°15'43470.6
2017-Sep-25 12:00N 33°46' W 118°13'3 6.8
2017-Sep-25 11:30N 33°44' W 118°16'32481.5
2017-Sep-25 11:30N 33°45' W 118°13'1 2.6
2017-Sep-25 11:00N 33°45' W 118°12'41757.7
2017-Sep-25 11:00N 33°45' W 118°16'4 7.1
2017-Sep-25 10:30N 33°44' W 118°12'1 1.2
2017-Sep-25 10:00N 33°44' W 118°12'3 6.4
2017-Sep-25 09:30N 33°44' W 118°16'0 0.5
2017-Sep-25 09:00N 33°44' W 118°16'0 0.0
2017-Sep-25 08:30N 33°44' W 118°16'0 0.0
2017-Sep-25 08:00N 33°44' W 118°16'0 0.0
2017-Sep-25 07:30N 33°44' W 118°16'0 0.0
2017-Sep-25 07:00N 33°44' W 118°16'0 0.0
2017-Sep-25 06:30N 33°44' W 118°16'0 0.0
2017-Sep-25 06:00N 33°44' W 118°16'0 0.0
2017-Sep-25 05:30N 33°44' W 118°16'0 0.0
2017-Sep-25 04:59N 33°44' W 118°16'0 0.0
2017-Sep-25 04:30N 33°44' W 118°16'0 0.0
2017-Sep-25 04:00N 33°44' W 118°16'0 0.0
2017-Sep-25 03:29N 33°44' W 118°16'0 0.0
2017-Sep-25 03:00N 33°44' W 118°16'1 1.3
2017-Sep-25 02:30N 33°44' W 118°16'2 3.1
2017-Sep-25 02:00N 33°45' W 118°17'1 1.5
2017-Sep-25 01:30N 33°45' W 118°17'1 2.1
2017-Sep-25 01:00N 33°44' W 118°16'0 0.0
2017-Sep-25 00:30N 33°44' W 118°16'0 0.0
2017-Sep-25 00:00N 33°44' W 118°16'3 5.1
2017-Sep-24 23:29N 33°43' W 118°13'1 2.3
2017-Sep-24 23:00N 33°44' W 118°12'1 1.3
2017-Sep-24 22:30N 33°44' W 118°11'1 2.6
2017-Sep-24 22:00N 33°43' W 118°11'1 1.4
2017-Sep-24 21:30N 33°44' W 118°11'1 2.1
2017-Sep-24 21:00N 33°43' W 118°13'2 5.0
2017-Sep-24 20:30N 33°44' W 118°16'0 0.0
2017-Sep-24 20:00N 33°44' W 118°16'0 0.0
2017-Sep-24 19:30N 33°44' W 118°16'0 0.0
2017-Sep-24 18:59N 33°44' W 118°16'0 0.2
2017-Sep-24 18:30N 33°44' W 118°16'3 5.9
2017-Sep-24 18:00N 33°44' W 118°12'2 3.3
2017-Sep-24 17:30N 33°45' W 118°11'3 4.6
2017-Sep-24 16:55N 33°43' W 118°13'2 4.7
2017-Sep-24 16:30N 33°44' W 118°16'0 0.0
2017-Sep-24 15:53N 33°44' W 118°16'0 0.0
2017-Sep-24 15:30N 33°44' W 118°16'0 0.0
2017-Sep-24 15:00N 33°44' W 118°16'0 0.0
2017-Sep-24 14:30N 33°44' W 118°16'0 0.0
2017-Sep-24 14:00N 33°44' W 118°16'0 0.0
2017-Sep-24 13:30N 33°44' W 118°16'0 0.0
2017-Sep-24 13:00N 33°44' W 118°16'1 1.9
2017-Sep-24 12:31N 33°44' W 118°17'1 2.7
2017-Sep-24 12:00N 33°46' W 118°17'1 0.9
2017-Sep-24 11:12N 33°45' W 118°16'0 0.0
2017-Sep-24 10:15N 33°45' W 118°16'0 0.0
2017-Sep-24 10:00N 33°45' W 118°16'0 0.0
2017-Sep-24 09:30N 33°45' W 118°16'0 0.0
2017-Sep-24 08:58N 33°45' W 118°16'0 0.0
2017-Sep-24 08:30N 33°45' W 118°16'1 2.7
2017-Sep-24 07:58N 33°44' W 118°16'3 4.7
2017-Sep-24 07:22N 33°45' W 118°13'1 0.8
2017-Sep-24 06:14N 33°46' W 118°13'0 0.0
2017-Sep-24 05:52N 33°46' W 118°13'0 0.0
2017-Sep-24 05:29N 33°46' W 118°13'0 0.0
2017-Sep-24 04:58N 33°46' W 118°13'3 6.9
2017-Sep-24 04:30N 33°43' W 118°14'2 3.2
2017-Sep-24 04:00N 33°44' W 118°16'0 0.0
2017-Sep-24 03:30N 33°44' W 118°16'0 0.0
2017-Sep-24 03:00N 33°44' W 118°16'0 0.0
2017-Sep-24 02:31N 33°44' W 118°16'2 3.8
2017-Sep-24 02:01N 33°44' W 118°13'1 2.8
2017-Sep-24 01:30N 33°45' W 118°14'1 2.6
2017-Sep-24 01:00N 33°46' W 118°13'2 3.7
2017-Sep-24 00:30N 33°45' W 118°13'1 0.9
2017-Sep-23 23:56N 33°45' W 118°12'0 0.0
2017-Sep-23 23:26N 33°45' W 118°12'0 0.0
2017-Sep-23 22:53N 33°45' W 118°12'0 0.0
2017-Sep-23 22:24N 33°45' W 118°12'0 1.1
2017-Sep-23 22:00N 33°45' W 118°12'1 2.4
2017-Sep-23 21:30N 33°45' W 118°11'0 0.0
2017-Sep-23 20:23N 33°45' W 118°11'0 0.0
2017-Sep-23 20:00N 33°45' W 118°11'4 0.1
2017-Sep-22 02:00N 33°44' W 118°16'0 0.6
2017-Sep-22 01:29N 33°44' W 118°16'1 1.4
2017-Sep-22 01:00N 33°44' W 118°15'0 0.1
2017-Sep-22 00:30N 33°44' W 118°15'0 0.0
2017-Sep-21 23:59N 33°44' W 118°15'1 3.9
2017-Sep-21 23:36N 33°45' W 118°16'115.6
2017-Sep-21 23:30N 33°44' W 118°15'147.3
2017-Sep-21 23:29N 33°45' W 118°16'2 3.6
2017-Sep-21 23:00N 33°43' W 118°16'28715.7
2017-Sep-21 23:00N 33°46' W 118°15'4 8.3
2017-Sep-21 22:30N 33°41' W 118°15'4660.8
2017-Sep-21 22:30N 33°45' W 118°16'2 4.9
2017-Sep-21 22:00N 33°43' W 118°16'1 1.7
2017-Sep-21 21:30N 33°43' W 118°15'2 3.1
2017-Sep-21 21:00N 33°44' W 118°16'1632.7
2017-Sep-21 20:31N 33°33' W 118°30'17898.2
2017-Sep-21 20:30N 33°46' W 118°16'18711.9
2017-Sep-21 20:29N 33°33' W 118°30'1837.4
2017-Sep-21 20:00N 33°46' W 118°15'23224.2
2017-Sep-21 19:53N 33°30' W 118°35'2358.2
2017-Sep-21 19:30N 33°46' W 118°15'251787.8
2017-Sep-21 19:29N 33°28' W 118°37'3 7.0
2017-Sep-21 19:00N 33°25' W 118°35'241756.1
2017-Sep-21 19:00N 33°44' W 118°16'0 0.0
2017-Sep-21 18:30N 33°44' W 118°16'1 1.7
2017-Sep-21 18:01N 33°43' W 118°16'2 4.3
2017-Sep-21 17:30N 33°44' W 118°13'2 4.3
2017-Sep-21 17:00N 33°46' W 118°13'1 1.8
2017-Sep-21 16:30N 33°45' W 118°13'2 4.6
2017-Sep-21 15:59N 33°44' W 118°16'0 0.0
2017-Sep-21 15:21N 33°44' W 118°16'0 0.0
2017-Sep-21 14:56N 33°44' W 118°16'0 0.0
2017-Sep-21 14:29N 33°44' W 118°16'3 5.1
2017-Sep-21 13:58N 33°44' W 118°13'1 3.1
2017-Sep-21 13:29N 33°46' W 118°13'1027.1
2017-Sep-21 13:08N 33°38' W 118°20'974.0
2017-Sep-21 13:00N 33°46' W 118°13'864.9
2017-Sep-21 12:53N 33°40' W 118°18'718.5
2017-Sep-21 12:30N 33°44' W 118°11'4183.2
2017-Sep-21 12:29N 33°42' W 118°16'2 3.6
2017-Sep-21 12:00N 33°43' W 118°16'0 6.9
2017-Sep-21 11:58N 33°43' W 118°16'2 3.3
2017-Sep-21 11:24N 33°45' W 118°16'0 2.5
2017-Sep-21 11:13N 33°45' W 118°16'0 0.0
2017-Sep-21 10:41N 33°45' W 118°16'0 0.1
2017-Sep-21 10:18N 33°45' W 118°16'1 3.0
2017-Sep-21 09:50N 33°44' W 118°16'2 5.8
2017-Sep-21 09:30N 33°43' W 118°15'1 0.8
2017-Sep-21 08:49N 33°42' W 118°14'2 4.3
2017-Sep-21 08:21N 33°44' W 118°16'0 0.0
2017-Sep-21 07:56N 33°44' W 118°16'0 0.0
2017-Sep-21 07:30N 33°44' W 118°16'0 0.0
2017-Sep-21 07:00N 33°44' W 118°16'0 0.0
2017-Sep-21 06:28N 33°44' W 118°16'0 0.0
2017-Sep-21 06:00N 33°44' W 118°16'0 0.0
2017-Sep-21 05:30N 33°44' W 118°16'0 0.4
2017-Sep-21 05:00N 33°44' W 118°15'0 0.3
2017-Sep-21 04:29N 33°44' W 118°16'0 0.0
2017-Sep-21 04:00N 33°44' W 118°16'0 0.0
2017-Sep-21 03:30N 33°44' W 118°16'0 0.0
2017-Sep-21 03:00N 33°44' W 118°16'0 0.0
2017-Sep-21 02:30N 33°44' W 118°16'0 0.0
2017-Sep-21 02:00N 33°44' W 118°16'1 1.8
2017-Sep-21 01:30N 33°43' W 118°15'3 6.9
2017-Sep-21 01:00N 33°45' W 118°12'0 0.2
2017-Sep-21 00:30N 33°45' W 118°12'1 2.3
2017-Sep-21 00:00N 33°43' W 118°11'2 3.9
2017-Sep-20 23:30N 33°45' W 118°13'0 0.0
2017-Sep-20 23:00N 33°45' W 118°13'0 0.0
2017-Sep-20 22:30N 33°45' W 118°13'1 1.8
2017-Sep-20 22:00N 33°45' W 118°14'1 1.6
2017-Sep-20 21:30N 33°45' W 118°13'2 3.2
2017-Sep-20 21:00N 33°44' W 118°12'0 0.2
2017-Sep-20 20:30N 33°44' W 118°12'2 3.1
2017-Sep-20 20:00N 33°45' W 118°12'317.6
2017-Sep-20 19:49N 33°45' W 118°16'3 9.4
2017-Sep-20 19:30N 33°44' W 118°13'3352.4
2017-Sep-20 19:30N 33°45' W 118°16'1 1.8
2017-Sep-20 19:00N 33°44' W 118°17'11220.5
2017-Sep-20 19:00N 33°43' W 118°16'3 6.3
2017-Sep-20 18:30N 33°46' W 118°15'65191.4
2017-Sep-20 18:30N 33°40' W 118°15'4 8.9
2017-Sep-20 18:00N 33°44' W 118°17'8125.3
2017-Sep-20 17:56N 33°36' W 118°15'817.6
2017-Sep-20 17:30N 33°44' W 118°16'0 0.0
2017-Sep-20 17:00N 33°44' W 118°16'0 0.0
2017-Sep-20 16:30N 33°44' W 118°16'2089.3
2017-Sep-20 16:17N 33°24' W 118°18'2073.5
2017-Sep-20 16:00N 33°44' W 118°15'221244.2
2017-Sep-20 15:59N 33°22' W 118°18'2346.9
2017-Sep-20 15:30N 33°45' W 118°17'25338.5
2017-Sep-20 15:26N 33°20' W 118°19'0 0.0
2017-Sep-20 14:59N 33°20' W 118°19'232253.8
2017-Sep-20 14:59N 33°43' W 118°16'1 0.6
2017-Sep-20 13:55N 33°44' W 118°16'24283.3
2017-Sep-20 13:50N 33°20' W 118°19'2368.6
2017-Sep-20 13:30N 33°43' W 118°14'2 4.8
2017-Sep-20 13:00N 33°45' W 118°13'0 0.8
2017-Sep-20 12:26N 33°46' W 118°13'1 1.3
2017-Sep-20 11:52N 33°45' W 118°13'1199.2
2017-Sep-20 11:45N 33°34' W 118°16'1139.3
2017-Sep-20 11:28N 33°45' W 118°13'9167.9
2017-Sep-20 11:25N 33°37' W 118°16'920.6
2017-Sep-20 11:00N 33°45' W 118°13'5692.3
2017-Sep-20 11:00N 33°40' W 118°15'3 6.2
2017-Sep-20 10:30N 33°43' W 118°16'3268.1
2017-Sep-20 10:29N 33°46' W 118°13'0 0.0
2017-Sep-20 10:00N 33°46' W 118°13'3780.7
2017-Sep-20 10:00N 33°45' W 118°16'3 5.4
2017-Sep-20 09:28N 33°45' W 118°13'0 0.0
2017-Sep-20 08:59N 33°45' W 118°13'1 2.8
2017-Sep-20 08:29N 33°44' W 118°13'2 3.2
2017-Sep-20 07:54N 33°44' W 118°16'0 0.0
2017-Sep-20 07:30N 33°44' W 118°16'0 0.0
2017-Sep-20 06:58N 33°44' W 118°16'0 0.0
2017-Sep-20 06:28N 33°44' W 118°16'0 0.0
2017-Sep-20 06:00N 33°44' W 118°16'0 0.0
2017-Sep-20 05:23N 33°44' W 118°16'0 0.0
2017-Sep-20 04:59N 33°44' W 118°16'0 0.0
2017-Sep-20 04:23N 33°44' W 118°16'0 0.0
2017-Sep-20 03:54N 33°44' W 118°16'0 0.0
2017-Sep-20 03:30N 33°44' W 118°16'0 0.0
2017-Sep-20 02:59N 33°44' W 118°16'0 0.5
2017-Sep-20 02:30N 33°44' W 118°16'3 3.8
2017-Sep-20 01:45N 33°45' W 118°12'0 1.7
2017-Sep-20 01:29N 33°45' W 118°13'0 0.2
2017-Sep-20 00:56N 33°45' W 118°13'0 0.1
2017-Sep-20 00:30N 33°45' W 118°13'0 0.1
2017-Sep-20 00:00N 33°45' W 118°13'0 0.8
2017-Sep-19 23:31N 33°45' W 118°13'0 0.5
2017-Sep-19 23:00N 33°45' W 118°13'311.4
2017-Sep-19 22:44N 33°45' W 118°16'312.8
2017-Sep-19 22:30N 33°45' W 118°13'31177.5
2017-Sep-19 22:30N 33°45' W 118°16'2 3.9
2017-Sep-19 22:00N 33°43' W 118°16'3316.4
2017-Sep-19 22:00N 33°45' W 118°13'510.1
2017-Sep-19 21:30N 33°41' W 118°15'51434.3
2017-Sep-19 21:30N 33°45' W 118°13'0 0.9
2017-Sep-19 21:00N 33°45' W 118°13'9232.0
2017-Sep-19 20:57N 33°37' W 118°19'715.5
2017-Sep-19 20:30N 33°43' W 118°14'1 2.8
2017-Sep-19 20:00N 33°44' W 118°15'1 2.0
2017-Sep-19 19:30N 33°43' W 118°16'1 1.3
2017-Sep-19 18:55N 33°43' W 118°15'1 2.8
2017-Sep-19 18:27N 33°44' W 118°16'0 0.0
2017-Sep-19 18:00N 33°44' W 118°16'0 0.0
2017-Sep-19 17:29N 33°44' W 118°16'0 0.0
2017-Sep-19 17:00N 33°44' W 118°16'1063.9
2017-Sep-19 16:51N 33°35' W 118°21'1027.7
2017-Sep-19 16:29N 33°44' W 118°16'7205.9
2017-Sep-19 16:27N 33°37' W 118°19'5 7.0
2017-Sep-19 15:47N 33°41' W 118°16'2 5.4
2017-Sep-19 15:24N 33°43' W 118°16'1 4.0
2017-Sep-19 15:10N 33°44' W 118°16'0 0.0
2017-Sep-19 14:56N 33°44' W 118°16'3 1.2
2017-Sep-19 12:40N 33°45' W 118°13'0 0.5
2017-Sep-19 12:08N 33°46' W 118°13'0 1.0
2017-Sep-19 11:57N 33°46' W 118°13'1 1.1
2017-Sep-19 11:18N 33°45' W 118°13'3 4.6
2017-Sep-19 10:37N 33°43' W 118°16'1 8.8
2017-Sep-19 10:27N 33°44' W 118°17'1 3.2
2017-Sep-19 09:59N 33°46' W 118°16'0 0.3
2017-Sep-19 09:28N 33°46' W 118°15'1 1.7
2017-Sep-19 08:41N 33°46' W 118°14'0 0.0
2017-Sep-19 08:27N 33°46' W 118°14'3 2.5
2017-Sep-19 07:05N 33°43' W 118°15'1 7.5
2017-Sep-19 07:00N 33°43' W 118°16'0 0.7
2017-Sep-19 06:23N 33°44' W 118°16'0 0.0
2017-Sep-19 05:58N 33°44' W 118°16'0 0.0
2017-Sep-19 05:29N 33°44' W 118°16'0 0.0
2017-Sep-19 05:00N 33°44' W 118°16'0 0.0
2017-Sep-19 04:24N 33°44' W 118°16'0 0.0
2017-Sep-19 03:58N 33°44' W 118°16'0 0.0
2017-Sep-19 03:25N 33°44' W 118°16'0 0.0
2017-Sep-19 03:00N 33°44' W 118°16'1 2.2
2017-Sep-19 02:30N 33°45' W 118°16'0 0.6
2017-Sep-19 01:57N 33°45' W 118°16'2 3.8
2017-Sep-19 01:30N 33°43' W 118°16'1 1.2
2017-Sep-19 00:57N 33°44' W 118°16'0 0.0
2017-Sep-19 00:30N 33°44' W 118°16'0 0.0
2017-Sep-19 00:00N 33°44' W 118°16'0 0.0
2017-Sep-18 23:30N 33°44' W 118°16'0 0.0
2017-Sep-18 23:00N 33°44' W 118°16'0 0.4
2017-Sep-18 22:29N 33°44' W 118°16'2 3.2
2017-Sep-18 21:57N 33°45' W 118°16'0 0.9
2017-Sep-18 21:30N 33°46' W 118°16'0 0.1
2017-Sep-18 20:56N 33°46' W 118°16'0 0.9
2017-Sep-18 20:30N 33°46' W 118°15'2 3.5
2017-Sep-18 20:00N 33°45' W 118°13'0 0.1
2017-Sep-18 19:30N 33°45' W 118°13'1 1.6
2017-Sep-18 18:58N 33°44' W 118°13'2 4.4
2017-Sep-18 18:30N 33°44' W 118°10'0 0.6
2017-Sep-18 18:00N 33°44' W 118°10'3 6.1
2017-Sep-18 17:30N 33°43' W 118°14'2 2.9
2017-Sep-18 16:54N 33°44' W 118°16'0 0.0
2017-Sep-18 16:30N 33°44' W 118°16'8 4.1
2017-Sep-18 14:38N 33°43' W 118°06'0 0.4
2017-Sep-18 14:30N 33°43' W 118°06'1 2.0
2017-Sep-18 13:48N 33°44' W 118°08'411.0
2017-Sep-18 13:26N 33°45' W 118°13'0 0.5
2017-Sep-18 12:25N 33°45' W 118°13'0 0.5
2017-Sep-18 11:54N 33°45' W 118°13'2 5.6
2017-Sep-18 11:30N 33°44' W 118°11'3 4.7
2017-Sep-18 10:51N 33°43' W 118°15'1 2.7
2017-Sep-18 10:20N 33°44' W 118°16'0 0.0
2017-Sep-18 09:48N 33°44' W 118°16'0 0.0
2017-Sep-18 09:29N 33°44' W 118°16'0 0.0
2017-Sep-18 08:58N 33°44' W 118°16'0 0.0
2017-Sep-18 08:29N 33°44' W 118°16'0 0.0
2017-Sep-18 07:57N 33°44' W 118°16'0 0.0
2017-Sep-18 07:24N 33°44' W 118°16'0 0.0
2017-Sep-18 07:00N 33°44' W 118°16'0 0.0
2017-Sep-18 06:25N 33°44' W 118°16'1 1.4
2017-Sep-18 05:59N 33°44' W 118°16'2 3.9
2017-Sep-18 05:26N 33°46' W 118°16'2 5.5
2017-Sep-18 05:00N 33°44' W 118°16'1 1.2
2017-Sep-18 04:30N 33°44' W 118°16'0 0.1
2017-Sep-18 03:57N 33°44' W 118°16'2 4.4
2017-Sep-18 03:29N 33°44' W 118°13'1 2.1
2017-Sep-18 02:59N 33°45' W 118°13'1 3.0
2017-Sep-18 02:30N 33°46' W 118°13'0 0.0
2017-Sep-18 01:55N 33°46' W 118°13'0 0.0
2017-Sep-18 01:29N 33°46' W 118°13'0 0.0
2017-Sep-18 00:58N 33°46' W 118°13'0 0.1
2017-Sep-18 00:27N 33°46' W 118°13'3 7.1
2017-Sep-18 00:00N 33°43' W 118°14'1 2.8
2017-Sep-17 23:30N 33°44' W 118°16'0 0.9
2017-Sep-17 22:58N 33°44' W 118°15'1 1.3
2017-Sep-17 22:30N 33°44' W 118°16'0 0.0
2017-Sep-17 22:00N 33°44' W 118°16'0 0.0
2017-Sep-17 21:30N 33°44' W 118°16'2 3.4
2017-Sep-17 21:00N 33°43' W 118°14'3 6.1
2017-Sep-17 20:30N 33°46' W 118°13'2 3.0
2017-Sep-17 19:58N 33°45' W 118°13'1 1.3
2017-Sep-17 19:30N 33°44' W 118°13'2 4.4
2017-Sep-17 18:59N 33°44' W 118°16'0 0.0
2017-Sep-17 18:28N 33°44' W 118°16'0 0.0
2017-Sep-17 18:00N 33°44' W 118°16'0 0.0
2017-Sep-17 17:29N 33°44' W 118°16'0 0.0
2017-Sep-17 16:51N 33°44' W 118°16'0 0.0
2017-Sep-17 16:29N 33°44' W 118°16'0 0.0
2017-Sep-17 15:08N 33°44' W 118°16'0 0.0
2017-Sep-17 14:58N 33°44' W 118°16'1 0.8
2017-Sep-17 14:10N 33°43' W 118°16'2 1.2
2017-Sep-17 12:10N 33°46' W 118°16'0 0.0
2017-Sep-17 11:23N 33°46' W 118°16'3 4.4
2017-Sep-17 10:47N 33°43' W 118°16'3 9.9
2017-Sep-17 10:31N 33°44' W 118°13'1 1.8
2017-Sep-17 09:54N 33°44' W 118°12'1 2.8
2017-Sep-17 09:30N 33°45' W 118°13'0 0.0
2017-Sep-17 08:57N 33°45' W 118°13'0 0.0
2017-Sep-17 08:27N 33°45' W 118°13'0 0.0
2017-Sep-17 08:00N 33°45' W 118°13'0 0.0
2017-Sep-17 07:30N 33°45' W 118°13'0 0.0
2017-Sep-17 06:57N 33°45' W 118°13'0 0.0
2017-Sep-17 06:29N 33°45' W 118°13'0 0.5
2017-Sep-17 05:58N 33°45' W 118°13'1 1.3
2017-Sep-17 05:23N 33°44' W 118°13'1 2.8
2017-Sep-17 04:59N 33°45' W 118°12'3 6.3
2017-Sep-17 04:30N 33°44' W 118°16'0 0.7
2017-Sep-17 03:59N 33°44' W 118°16'0 0.0
2017-Sep-17 03:30N 33°44' W 118°16'0 0.0
2017-Sep-17 02:58N 33°44' W 118°16'0 1.1
2017-Sep-17 02:30N 33°43' W 118°16'2 3.6
2017-Sep-17 02:00N 33°45' W 118°16'0 0.9
2017-Sep-17 01:27N 33°46' W 118°17'1 1.1
2017-Sep-17 00:57N 33°45' W 118°16'2 5.1
2017-Sep-17 00:30N 33°43' W 118°16'3 5.7
2017-Sep-17 00:00N 33°45' W 118°13'0 0.5
2017-Sep-16 23:30N 33°45' W 118°13'0 0.0
2017-Sep-16 22:58N 33°45' W 118°13'0 0.0
2017-Sep-16 22:30N 33°45' W 118°13'0 0.0
2017-Sep-16 22:00N 33°45' W 118°13'0 0.0
2017-Sep-16 21:30N 33°45' W 118°13'0 0.0
2017-Sep-16 21:00N 33°45' W 118°13'0 0.0
2017-Sep-16 20:28N 33°45' W 118°13'0 0.9
2017-Sep-16 20:00N 33°45' W 118°12'1 2.2
2017-Sep-16 19:29N 33°45' W 118°11'0 0.3
2017-Sep-16 19:00N 33°45' W 118°11'3 5.3
2017-Sep-16 18:24N 33°43' W 118°14'2 3.2
2017-Sep-16 17:54N 33°44' W 118°16'0 0.0
2017-Sep-16 17:30N 33°44' W 118°16'0 0.0
2017-Sep-16 16:55N 33°44' W 118°16'0 0.0
2017-Sep-16 16:27N 33°44' W 118°16'0 0.0
2017-Sep-16 15:59N 33°44' W 118°16'1 0.3
2017-Sep-16 14:15N 33°44' W 118°16'2 5.3
2017-Sep-16 13:55N 33°45' W 118°16'0 0.1
2017-Sep-16 13:26N 33°45' W 118°16'2 3.4
2017-Sep-16 12:57N 33°44' W 118°16'2 4.1
2017-Sep-16 12:29N 33°43' W 118°15'1 1.3
2017-Sep-16 11:48N 33°43' W 118°16'0 0.5
2017-Sep-16 11:18N 33°43' W 118°16'0 0.6
2017-Sep-16 10:52N 33°44' W 118°16'0 0.8
2017-Sep-16 10:26N 33°44' W 118°15'0 0.4
2017-Sep-16 09:54N 33°44' W 118°16'0 0.0
2017-Sep-16 09:28N 33°44' W 118°16'0 0.0
2017-Sep-16 08:50N 33°44' W 118°16'1 2.6
2017-Sep-16 08:30N 33°44' W 118°17'1 1.0
2017-Sep-16 07:53N 33°45' W 118°16'2 6.2
2017-Sep-16 07:29N 33°43' W 118°15'3 5.6
2017-Sep-16 06:59N 33°45' W 118°12'3 6.2
2017-Sep-16 06:30N 33°44' W 118°16'0 0.1
2017-Sep-16 06:00N 33°44' W 118°16'2 4.5
2017-Sep-16 05:30N 33°44' W 118°13'2 3.8
2017-Sep-16 05:00N 33°46' W 118°13'0 0.9
2017-Sep-16 04:30N 33°46' W 118°13'1 2.9
2017-Sep-16 04:00N 33°45' W 118°13'3 5.5
2017-Sep-16 03:30N 33°42' W 118°11'1 2.8
2017-Sep-16 03:00N 33°41' W 118°10'1 2.4
2017-Sep-16 02:30N 33°41' W 118°08'0 0.8
2017-Sep-16 01:59N 33°41' W 118°08'3 6.4
2017-Sep-16 01:30N 33°42' W 118°12'3 6.6
2017-Sep-16 01:00N 33°43' W 118°15'1 2.2
2017-Sep-16 00:30N 33°44' W 118°16'0 0.0
2017-Sep-16 00:00N 33°44' W 118°16'0 0.0
2017-Sep-15 23:30N 33°44' W 118°16'3 5.6
2017-Sep-15 23:00N 33°43' W 118°12'4 8.3
2017-Sep-15 22:30N 33°44' W 118°07'2 3.1
2017-Sep-15 21:59N 33°44' W 118°06'1 1.5
2017-Sep-15 21:30N 33°44' W 118°06'3 6.2
2017-Sep-15 21:00N 33°44' W 118°10'4 6.5
2017-Sep-15 20:28N 33°43' W 118°14'2 3.7
2017-Sep-15 20:00N 33°44' W 118°16'0 0.0
2017-Sep-15 19:29N 33°44' W 118°16'0 0.3
2017-Sep-15 18:59N 33°44' W 118°16'0 0.0
2017-Sep-15 18:30N 33°44' W 118°16'0 0.0
2017-Sep-15 17:59N 33°44' W 118°16'0 0.0
2017-Sep-15 17:28N 33°44' W 118°16'0 0.0
2017-Sep-15 16:58N 33°44' W 118°16'0 0.0
2017-Sep-15 16:30N 33°44' W 118°16'1 1.8
2017-Sep-15 16:00N 33°44' W 118°17'2 4.1
2017-Sep-15 15:28N 33°46' W 118°15'3 5.1
2017-Sep-15 14:54N 33°43' W 118°16'  

Dump ship's entire track history